sensor_id;sensor_type;location;lat;lon;timestamp;P1;durP1;ratioP1;P2;durP2;ratioP2
23394;SDS011;11870;53.084;18.206;2024-03-29T00:01:03;2.85;;;1.63;;
23394;SDS011;11870;53.084;18.206;2024-03-29T00:03:49;3.28;;;1.40;;
23394;SDS011;11870;53.084;18.206;2024-03-29T00:06:19;3.63;;;1.27;;
23394;SDS011;11870;53.084;18.206;2024-03-29T00:08:45;2.50;;;1.33;;
23394;SDS011;11870;53.084;18.206;2024-03-29T00:11:12;2.47;;;1.33;;
23394;SDS011;11870;53.084;18.206;2024-03-29T00:13:38;2.72;;;1.60;;
23394;SDS011;11870;53.084;18.206;2024-03-29T00:16:06;4.22;;;1.40;;
23394;SDS011;11870;53.084;18.206;2024-03-29T00:18:32;6.95;;;1.73;;
23394;SDS011;11870;53.084;18.206;2024-03-29T00:20:59;2.85;;;1.35;;
23394;SDS011;11870;53.084;18.206;2024-03-29T00:23:25;2.50;;;1.20;;
23394;SDS011;11870;53.084;18.206;2024-03-29T00:25:53;2.58;;;1.30;;
23394;SDS011;11870;53.084;18.206;2024-03-29T00:28:23;2.65;;;1.70;;
23394;SDS011;11870;53.084;18.206;2024-03-29T00:30:50;2.72;;;1.58;;
23394;SDS011;11870;53.084;18.206;2024-03-29T00:33:17;2.95;;;1.40;;
23394;SDS011;11870;53.084;18.206;2024-03-29T00:35:43;2.80;;;1.60;;
23394;SDS011;11870;53.084;18.206;2024-03-29T00:38:10;2.88;;;1.60;;
23394;SDS011;11870;53.084;18.206;2024-03-29T00:40:37;2.47;;;1.55;;
23394;SDS011;11870;53.084;18.206;2024-03-29T00:43:04;3.63;;;1.80;;
23394;SDS011;11870;53.084;18.206;2024-03-29T00:45:31;2.28;;;1.45;;
23394;SDS011;11870;53.084;18.206;2024-03-29T00:47:57;2.85;;;1.58;;
23394;SDS011;11870;53.084;18.206;2024-03-29T00:50:24;2.65;;;1.77;;
23394;SDS011;11870;53.084;18.206;2024-03-29T00:52:50;4.15;;;1.70;;
23394;SDS011;11870;53.084;18.206;2024-03-29T00:55:17;4.18;;;1.95;;
23394;SDS011;11870;53.084;18.206;2024-03-29T00:57:44;3.50;;;1.70;;
23394;SDS011;11870;53.084;18.206;2024-03-29T01:00:11;2.38;;;1.58;;
23394;SDS011;11870;53.084;18.206;2024-03-29T01:02:38;3.90;;;1.70;;
23394;SDS011;11870;53.084;18.206;2024-03-29T01:05:05;4.05;;;1.77;;
23394;SDS011;11870;53.084;18.206;2024-03-29T01:07:32;3.55;;;2.00;;
23394;SDS011;11870;53.084;18.206;2024-03-29T01:09:58;4.60;;;1.77;;
23394;SDS011;11870;53.084;18.206;2024-03-29T01:12:25;3.20;;;1.77;;
23394;SDS011;11870;53.084;18.206;2024-03-29T01:14:53;3.17;;;1.70;;
23394;SDS011;11870;53.084;18.206;2024-03-29T01:17:19;2.13;;;1.60;;
23394;SDS011;11870;53.084;18.206;2024-03-29T01:19:46;2.97;;;1.75;;
23394;SDS011;11870;53.084;18.206;2024-03-29T01:22:13;2.65;;;1.60;;
23394;SDS011;11870;53.084;18.206;2024-03-29T01:24:39;2.78;;;1.65;;
23394;SDS011;11870;53.084;18.206;2024-03-29T01:27:06;3.08;;;1.65;;
23394;SDS011;11870;53.084;18.206;2024-03-29T01:29:32;3.75;;;1.83;;
23394;SDS011;11870;53.084;18.206;2024-03-29T01:31:59;3.05;;;1.90;;
23394;SDS011;11870;53.084;18.206;2024-03-29T01:34:26;2.65;;;1.88;;
23394;SDS011;11870;53.084;18.206;2024-03-29T01:36:52;3.35;;;1.85;;
23394;SDS011;11870;53.084;18.206;2024-03-29T01:39:19;4.72;;;2.13;;
23394;SDS011;11870;53.084;18.206;2024-03-29T01:41:50;2.83;;;1.88;;
23394;SDS011;11870;53.084;18.206;2024-03-29T01:44:16;3.20;;;1.95;;
23394;SDS011;11870;53.084;18.206;2024-03-29T01:46:43;3.33;;;1.90;;
23394;SDS011;11870;53.084;18.206;2024-03-29T01:49:10;2.95;;;1.88;;
23394;SDS011;11870;53.084;18.206;2024-03-29T01:51:37;5.00;;;1.95;;
23394;SDS011;11870;53.084;18.206;2024-03-29T01:54:06;2.72;;;1.58;;
23394;SDS011;11870;53.084;18.206;2024-03-29T01:56:35;5.30;;;1.90;;
23394;SDS011;11870;53.084;18.206;2024-03-29T01:59:03;3.30;;;1.75;;
23394;SDS011;11870;53.084;18.206;2024-03-29T02:01:30;3.88;;;2.00;;
23394;SDS011;11870;53.084;18.206;2024-03-29T02:03:57;4.57;;;1.77;;
23394;SDS011;11870;53.084;18.206;2024-03-29T02:06:23;2.88;;;1.80;;
23394;SDS011;11870;53.084;18.206;2024-03-29T02:08:51;3.28;;;1.70;;
23394;SDS011;11870;53.084;18.206;2024-03-29T02:11:19;2.38;;;1.95;;
23394;SDS011;11870;53.084;18.206;2024-03-29T02:13:45;3.75;;;1.90;;
23394;SDS011;11870;53.084;18.206;2024-03-29T02:16:12;3.05;;;1.73;;
23394;SDS011;11870;53.084;18.206;2024-03-29T02:18:39;3.95;;;1.95;;
23394;SDS011;11870;53.084;18.206;2024-03-29T02:21:06;3.22;;;1.80;;
23394;SDS011;11870;53.084;18.206;2024-03-29T02:23:34;2.95;;;2.10;;
23394;SDS011;11870;53.084;18.206;2024-03-29T02:26:02;3.20;;;1.80;;
23394;SDS011;11870;53.084;18.206;2024-03-29T02:28:29;2.90;;;1.73;;
23394;SDS011;11870;53.084;18.206;2024-03-29T02:30:56;2.80;;;1.73;;
23394;SDS011;11870;53.084;18.206;2024-03-29T02:33:22;2.70;;;1.80;;
23394;SDS011;11870;53.084;18.206;2024-03-29T02:35:49;5.22;;;2.08;;
23394;SDS011;11870;53.084;18.206;2024-03-29T02:38:16;2.28;;;1.83;;
23394;SDS011;11870;53.084;18.206;2024-03-29T02:40:43;3.58;;;1.90;;
23394;SDS011;11870;53.084;18.206;2024-03-29T02:43:10;5.82;;;1.90;;
23394;SDS011;11870;53.084;18.206;2024-03-29T02:45:36;3.88;;;1.85;;
23394;SDS011;11870;53.084;18.206;2024-03-29T02:48:03;5.30;;;1.90;;
23394;SDS011;11870;53.084;18.206;2024-03-29T02:50:29;7.30;;;1.92;;
23394;SDS011;11870;53.084;18.206;2024-03-29T02:52:56;4.63;;;2.20;;
23394;SDS011;11870;53.084;18.206;2024-03-29T02:55:22;4.22;;;2.25;;
23394;SDS011;11870;53.084;18.206;2024-03-29T02:57:49;5.80;;;2.10;;
23394;SDS011;11870;53.084;18.206;2024-03-29T03:00:16;3.38;;;1.85;;
23394;SDS011;11870;53.084;18.206;2024-03-29T03:02:42;2.53;;;1.88;;
23394;SDS011;11870;53.084;18.206;2024-03-29T03:05:09;3.30;;;2.10;;
23394;SDS011;11870;53.084;18.206;2024-03-29T03:07:35;3.30;;;1.88;;
23394;SDS011;11870;53.084;18.206;2024-03-29T03:10:20;3.90;;;2.10;;
23394;SDS011;11870;53.084;18.206;2024-03-29T03:13:06;3.83;;;2.17;;
23394;SDS011;11870;53.084;18.206;2024-03-29T03:15:32;3.17;;;2.25;;
23394;SDS011;11870;53.084;18.206;2024-03-29T03:17:59;3.28;;;2.20;;
23394;SDS011;11870;53.084;18.206;2024-03-29T03:20:25;4.10;;;2.45;;
23394;SDS011;11870;53.084;18.206;2024-03-29T03:22:56;3.45;;;2.22;;
23394;SDS011;11870;53.084;18.206;2024-03-29T03:25:24;6.30;;;1.98;;
23394;SDS011;11870;53.084;18.206;2024-03-29T03:27:51;3.40;;;2.08;;
23394;SDS011;11870;53.084;18.206;2024-03-29T03:30:18;3.67;;;2.10;;
23394;SDS011;11870;53.084;18.206;2024-03-29T03:32:44;3.20;;;2.03;;
23394;SDS011;11870;53.084;18.206;2024-03-29T03:35:11;4.13;;;2.58;;
23394;SDS011;11870;53.084;18.206;2024-03-29T03:37:37;4.75;;;2.40;;
23394;SDS011;11870;53.084;18.206;2024-03-29T03:40:04;4.80;;;2.65;;
23394;SDS011;11870;53.084;18.206;2024-03-29T03:42:31;3.50;;;2.40;;
23394;SDS011;11870;53.084;18.206;2024-03-29T03:44:58;4.60;;;2.63;;
23394;SDS011;11870;53.084;18.206;2024-03-29T03:47:24;6.28;;;2.70;;
23394;SDS011;11870;53.084;18.206;2024-03-29T03:49:51;4.90;;;2.80;;
23394;SDS011;11870;53.084;18.206;2024-03-29T03:52:18;4.55;;;2.38;;
23394;SDS011;11870;53.084;18.206;2024-03-29T03:54:44;8.40;;;2.97;;
23394;SDS011;11870;53.084;18.206;2024-03-29T03:57:11;4.47;;;2.60;;
23394;SDS011;11870;53.084;18.206;2024-03-29T03:59:37;5.53;;;2.80;;
23394;SDS011;11870;53.084;18.206;2024-03-29T04:02:04;5.28;;;2.85;;
23394;SDS011;11870;53.084;18.206;2024-03-29T04:04:30;6.18;;;2.80;;
23394;SDS011;11870;53.084;18.206;2024-03-29T04:06:57;4.40;;;2.75;;
23394;SDS011;11870;53.084;18.206;2024-03-29T04:09:23;6.63;;;2.67;;
23394;SDS011;11870;53.084;18.206;2024-03-29T04:11:50;4.68;;;2.88;;
23394;SDS011;11870;53.084;18.206;2024-03-29T04:14:16;4.57;;;2.85;;
23394;SDS011;11870;53.084;18.206;2024-03-29T04:16:43;5.50;;;2.97;;
23394;SDS011;11870;53.084;18.206;2024-03-29T04:19:10;5.72;;;2.88;;
23394;SDS011;11870;53.084;18.206;2024-03-29T04:21:36;6.07;;;3.20;;
23394;SDS011;11870;53.084;18.206;2024-03-29T04:24:03;4.63;;;2.95;;
23394;SDS011;11870;53.084;18.206;2024-03-29T04:26:33;6.30;;;2.92;;
23394;SDS011;11870;53.084;18.206;2024-03-29T04:28:59;5.75;;;3.00;;
23394;SDS011;11870;53.084;18.206;2024-03-29T04:31:26;5.57;;;3.28;;
23394;SDS011;11870;53.084;18.206;2024-03-29T04:33:52;7.40;;;3.75;;
23394;SDS011;11870;53.084;18.206;2024-03-29T04:36:19;6.05;;;3.15;;
23394;SDS011;11870;53.084;18.206;2024-03-29T04:38:45;8.20;;;4.05;;
23394;SDS011;11870;53.084;18.206;2024-03-29T04:41:13;9.68;;;3.72;;
23394;SDS011;11870;53.084;18.206;2024-03-29T04:43:39;9.77;;;5.05;;
23394;SDS011;11870;53.084;18.206;2024-03-29T04:46:08;6.95;;;4.05;;
23394;SDS011;11870;53.084;18.206;2024-03-29T04:48:38;6.85;;;3.80;;
23394;SDS011;11870;53.084;18.206;2024-03-29T04:51:05;8.10;;;4.15;;
23394;SDS011;11870;53.084;18.206;2024-03-29T04:53:31;7.95;;;4.30;;
23394;SDS011;11870;53.084;18.206;2024-03-29T04:55:58;6.68;;;4.00;;
23394;SDS011;11870;53.084;18.206;2024-03-29T04:58:25;6.32;;;3.83;;
23394;SDS011;11870;53.084;18.206;2024-03-29T05:00:52;6.57;;;3.33;;
23394;SDS011;11870;53.084;18.206;2024-03-29T05:03:19;5.70;;;2.97;;
23394;SDS011;11870;53.084;18.206;2024-03-29T05:05:46;2.83;;;2.10;;
23394;SDS011;11870;53.084;18.206;2024-03-29T05:08:13;4.10;;;2.08;;
23394;SDS011;11870;53.084;18.206;2024-03-29T05:10:39;3.45;;;2.10;;
23394;SDS011;11870;53.084;18.206;2024-03-29T05:13:06;3.28;;;2.08;;
23394;SDS011;11870;53.084;18.206;2024-03-29T05:15:33;3.22;;;1.75;;
23394;SDS011;11870;53.084;18.206;2024-03-29T05:17:59;3.50;;;1.60;;
23394;SDS011;11870;53.084;18.206;2024-03-29T05:20:26;3.72;;;1.85;;
23394;SDS011;11870;53.084;18.206;2024-03-29T05:22:52;4.07;;;1.52;;
23394;SDS011;11870;53.084;18.206;2024-03-29T05:25:19;2.55;;;1.80;;
23394;SDS011;11870;53.084;18.206;2024-03-29T05:27:45;3.53;;;1.70;;
23394;SDS011;11870;53.084;18.206;2024-03-29T05:30:12;2.92;;;1.77;;
23394;SDS011;11870;53.084;18.206;2024-03-29T05:32:38;1.85;;;1.35;;
23394;SDS011;11870;53.084;18.206;2024-03-29T05:35:05;2.58;;;1.70;;
23394;SDS011;11870;53.084;18.206;2024-03-29T05:37:31;1.95;;;1.38;;
23394;SDS011;11870;53.084;18.206;2024-03-29T05:39:58;4.53;;;1.88;;
23394;SDS011;11870;53.084;18.206;2024-03-29T05:42:30;4.25;;;1.70;;
23394;SDS011;11870;53.084;18.206;2024-03-29T05:44:57;2.58;;;1.50;;
23394;SDS011;11870;53.084;18.206;2024-03-29T05:47:23;2.38;;;1.50;;
23394;SDS011;11870;53.084;18.206;2024-03-29T05:49:49;2.28;;;1.48;;
23394;SDS011;11870;53.084;18.206;2024-03-29T05:52:16;2.95;;;1.40;;
23394;SDS011;11870;53.084;18.206;2024-03-29T05:54:43;4.60;;;1.40;;
23394;SDS011;11870;53.084;18.206;2024-03-29T05:57:09;4.07;;;1.60;;
23394;SDS011;11870;53.084;18.206;2024-03-29T05:59:36;2.05;;;1.20;;
23394;SDS011;11870;53.084;18.206;2024-03-29T06:02:02;1.80;;;1.30;;
23394;SDS011;11870;53.084;18.206;2024-03-29T06:04:29;1.90;;;1.27;;
23394;SDS011;11870;53.084;18.206;2024-03-29T06:07:01;3.10;;;1.20;;
23394;SDS011;11870;53.084;18.206;2024-03-29T06:09:29;2.35;;;1.10;;
23394;SDS011;11870;53.084;18.206;2024-03-29T06:11:56;4.60;;;1.38;;
23394;SDS011;11870;53.084;18.206;2024-03-29T06:14:23;3.75;;;1.23;;
23394;SDS011;11870;53.084;18.206;2024-03-29T06:17:08;1.77;;;1.38;;
23394;SDS011;11870;53.084;18.206;2024-03-29T06:19:50;4.93;;;2.97;;
23394;SDS011;11870;53.084;18.206;2024-03-29T06:22:19;5.25;;;1.73;;
23394;SDS011;11870;53.084;18.206;2024-03-29T06:24:46;4.13;;;2.50;;
23394;SDS011;11870;53.084;18.206;2024-03-29T06:27:13;2.95;;;2.05;;
23394;SDS011;11870;53.084;18.206;2024-03-29T06:29:43;2.75;;;1.60;;
23394;SDS011;11870;53.084;18.206;2024-03-29T06:32:10;2.83;;;1.70;;
23394;SDS011;11870;53.084;18.206;2024-03-29T06:34:36;1.65;;;1.35;;
23394;SDS011;11870;53.084;18.206;2024-03-29T06:37:03;1.80;;;1.35;;
23394;SDS011;11870;53.084;18.206;2024-03-29T06:39:29;2.25;;;1.45;;
23394;SDS011;11870;53.084;18.206;2024-03-29T06:41:55;3.28;;;1.23;;
23394;SDS011;11870;53.084;18.206;2024-03-29T06:44:22;2.00;;;1.30;;
23394;SDS011;11870;53.084;18.206;2024-03-29T06:46:49;1.48;;;1.20;;
23394;SDS011;11870;53.084;18.206;2024-03-29T06:49:16;1.40;;;1.10;;
23394;SDS011;11870;53.084;18.206;2024-03-29T06:51:42;3.65;;;1.55;;
23394;SDS011;11870;53.084;18.206;2024-03-29T06:54:09;1.65;;;1.20;;
23394;SDS011;11870;53.084;18.206;2024-03-29T06:56:35;2.53;;;1.65;;
23394;SDS011;11870;53.084;18.206;2024-03-29T06:59:01;1.55;;;1.30;;
23394;SDS011;11870;53.084;18.206;2024-03-29T07:01:28;2.10;;;1.38;;
23394;SDS011;11870;53.084;18.206;2024-03-29T07:03:55;1.63;;;1.33;;
23394;SDS011;11870;53.084;18.206;2024-03-29T07:06:21;3.17;;;1.45;;
23394;SDS011;11870;53.084;18.206;2024-03-29T07:08:48;1.80;;;1.10;;
23394;SDS011;11870;53.084;18.206;2024-03-29T07:11:14;1.80;;;1.30;;
23394;SDS011;11870;53.084;18.206;2024-03-29T07:13:44;2.35;;;1.20;;
23394;SDS011;11870;53.084;18.206;2024-03-29T07:16:10;1.50;;;1.20;;
23394;SDS011;11870;53.084;18.206;2024-03-29T07:18:39;2.80;;;1.45;;
23394;SDS011;11870;53.084;18.206;2024-03-29T07:21:17;1.85;;;1.20;;
23394;SDS011;11870;53.084;18.206;2024-03-29T07:23:44;2.10;;;1.38;;
23394;SDS011;11870;53.084;18.206;2024-03-29T07:26:10;1.13;;;1.00;;
23394;SDS011;11870;53.084;18.206;2024-03-29T07:28:37;2.22;;;1.40;;
23394;SDS011;11870;53.084;18.206;2024-03-29T07:31:06;2.00;;;1.40;;
23394;SDS011;11870;53.084;18.206;2024-03-29T07:33:36;2.53;;;1.60;;
23394;SDS011;11870;53.084;18.206;2024-03-29T07:36:02;1.63;;;1.17;;
23394;SDS011;11870;53.084;18.206;2024-03-29T07:38:31;2.00;;;1.23;;
23394;SDS011;11870;53.084;18.206;2024-03-29T07:40:59;2.83;;;1.17;;
23394;SDS011;11870;53.084;18.206;2024-03-29T07:44:13;1.98;;;1.23;;
23394;SDS011;11870;53.084;18.206;2024-03-29T07:46:21;2.10;;;1.55;;
23394;SDS011;11870;53.084;18.206;2024-03-29T07:48:48;1.83;;;1.38;;
23394;SDS011;11870;53.084;18.206;2024-03-29T07:51:14;3.42;;;1.50;;
23394;SDS011;11870;53.084;18.206;2024-03-29T07:53:41;4.20;;;1.40;;
23394;SDS011;11870;53.084;18.206;2024-03-29T07:56:07;1.50;;;1.05;;
23394;SDS011;11870;53.084;18.206;2024-03-29T07:58:33;2.35;;;1.30;;
23394;SDS011;11870;53.084;18.206;2024-03-29T08:00:59;2.00;;;1.40;;
23394;SDS011;11870;53.084;18.206;2024-03-29T08:03:26;2.95;;;1.38;;
23394;SDS011;11870;53.084;18.206;2024-03-29T08:05:59;6.75;;;2.20;;
23394;SDS011;11870;53.084;18.206;2024-03-29T08:08:32;5.35;;;1.40;;
23394;SDS011;11870;53.084;18.206;2024-03-29T08:10:58;6.97;;;1.45;;
23394;SDS011;11870;53.084;18.206;2024-03-29T08:13:25;2.28;;;1.30;;
23394;SDS011;11870;53.084;18.206;2024-03-29T08:15:56;1.67;;;1.30;;
23394;SDS011;11870;53.084;18.206;2024-03-29T08:18:23;1.90;;;1.20;;
23394;SDS011;11870;53.084;18.206;2024-03-29T08:20:50;2.92;;;1.45;;
23394;SDS011;11870;53.084;18.206;2024-03-29T08:23:16;2.92;;;1.40;;
23394;SDS011;11870;53.084;18.206;2024-03-29T08:25:42;2.42;;;1.38;;
23394;SDS011;11870;53.084;18.206;2024-03-29T08:28:10;3.58;;;1.58;;
23394;SDS011;11870;53.084;18.206;2024-03-29T08:30:36;2.67;;;1.20;;
23394;SDS011;11870;53.084;18.206;2024-03-29T08:33:03;1.58;;;1.08;;
23394;SDS011;11870;53.084;18.206;2024-03-29T08:35:29;2.50;;;1.17;;
23394;SDS011;11870;53.084;18.206;2024-03-29T08:37:56;2.47;;;1.40;;
23394;SDS011;11870;53.084;18.206;2024-03-29T08:40:22;3.40;;;1.30;;
23394;SDS011;11870;53.084;18.206;2024-03-29T08:42:50;2.55;;;1.20;;
23394;SDS011;11870;53.084;18.206;2024-03-29T08:45:16;1.92;;;1.20;;
23394;SDS011;11870;53.084;18.206;2024-03-29T08:47:42;3.42;;;1.30;;
23394;SDS011;11870;53.084;18.206;2024-03-29T08:50:09;2.08;;;1.20;;
23394;SDS011;11870;53.084;18.206;2024-03-29T08:52:36;3.22;;;1.30;;
23394;SDS011;11870;53.084;18.206;2024-03-29T08:55:03;2.13;;;1.35;;
23394;SDS011;11870;53.084;18.206;2024-03-29T08:57:30;2.58;;;1.38;;
23394;SDS011;11870;53.084;18.206;2024-03-29T08:59:56;5.00;;;1.50;;
23394;SDS011;11870;53.084;18.206;2024-03-29T09:02:26;4.13;;;1.40;;
23394;SDS011;11870;53.084;18.206;2024-03-29T09:04:52;3.05;;;1.70;;
23394;SDS011;11870;53.084;18.206;2024-03-29T09:07:33;4.28;;;1.13;;
23394;SDS011;11870;53.084;18.206;2024-03-29T09:10:06;3.35;;;1.40;;
23394;SDS011;11870;53.084;18.206;2024-03-29T09:12:33;2.90;;;1.30;;
23394;SDS011;11870;53.084;18.206;2024-03-29T09:15:04;2.78;;;1.80;;
23394;SDS011;11870;53.084;18.206;2024-03-29T09:17:42;4.10;;;1.55;;
23394;SDS011;11870;53.084;18.206;2024-03-29T09:20:10;3.20;;;1.27;;
23394;SDS011;11870;53.084;18.206;2024-03-29T09:22:36;4.07;;;1.35;;
23394;SDS011;11870;53.084;18.206;2024-03-29T09:25:04;3.00;;;1.48;;
23394;SDS011;11870;53.084;18.206;2024-03-29T09:27:31;3.35;;;1.50;;
23394;SDS011;11870;53.084;18.206;2024-03-29T09:30:03;2.67;;;1.40;;
23394;SDS011;11870;53.084;18.206;2024-03-29T09:32:35;3.25;;;1.48;;
23394;SDS011;11870;53.084;18.206;2024-03-29T09:35:03;3.63;;;1.60;;
23394;SDS011;11870;53.084;18.206;2024-03-29T09:37:29;3.65;;;1.48;;
23394;SDS011;11870;53.084;18.206;2024-03-29T09:40:02;3.13;;;1.42;;
23394;SDS011;11870;53.084;18.206;2024-03-29T09:42:29;3.67;;;1.60;;
23394;SDS011;11870;53.084;18.206;2024-03-29T09:44:58;3.50;;;1.50;;
23394;SDS011;11870;53.084;18.206;2024-03-29T09:47:27;2.47;;;1.50;;
23394;SDS011;11870;53.084;18.206;2024-03-29T09:49:56;3.72;;;1.50;;
23394;SDS011;11870;53.084;18.206;2024-03-29T09:52:28;4.85;;;1.60;;
23394;SDS011;11870;53.084;18.206;2024-03-29T09:54:57;2.47;;;1.40;;
23394;SDS011;11870;53.084;18.206;2024-03-29T09:57:34;3.88;;;1.52;;
23394;SDS011;11870;53.084;18.206;2024-03-29T10:00:04;2.72;;;1.58;;
23394;SDS011;11870;53.084;18.206;2024-03-29T10:02:31;2.38;;;1.50;;
23394;SDS011;11870;53.084;18.206;2024-03-29T10:04:59;1.95;;;1.40;;
23394;SDS011;11870;53.084;18.206;2024-03-29T10:07:29;2.30;;;1.30;;
23394;SDS011;11870;53.084;18.206;2024-03-29T10:10:00;6.65;;;1.42;;
23394;SDS011;11870;53.084;18.206;2024-03-29T10:15:20;2.70;;;1.80;;
23394;SDS011;11870;53.084;18.206;2024-03-29T10:17:51;2.72;;;1.63;;
23394;SDS011;11870;53.084;18.206;2024-03-29T10:20:18;4.25;;;1.50;;
23394;SDS011;11870;53.084;18.206;2024-03-29T10:22:45;6.75;;;1.70;;
23394;SDS011;11870;53.084;18.206;2024-03-29T10:25:17;4.43;;;1.40;;
23394;SDS011;11870;53.084;18.206;2024-03-29T10:27:45;4.38;;;1.83;;
23394;SDS011;11870;53.084;18.206;2024-03-29T10:30:12;1.73;;;1.25;;
23394;SDS011;11870;53.084;18.206;2024-03-29T10:32:45;4.72;;;1.35;;
23394;SDS011;11870;53.084;18.206;2024-03-29T10:35:11;4.10;;;1.20;;
23394;SDS011;11870;53.084;18.206;2024-03-29T10:37:38;3.10;;;1.42;;
23394;SDS011;11870;53.084;18.206;2024-03-29T10:40:07;2.13;;;1.10;;
23394;SDS011;11870;53.084;18.206;2024-03-29T10:42:36;4.43;;;1.23;;
23394;SDS011;11870;53.084;18.206;2024-03-29T10:45:07;2.92;;;1.20;;
23394;SDS011;11870;53.084;18.206;2024-03-29T10:47:34;2.33;;;1.10;;
23394;SDS011;11870;53.084;18.206;2024-03-29T10:50:00;4.55;;;1.40;;
23394;SDS011;11870;53.084;18.206;2024-03-29T10:52:30;2.70;;;0.98;;
23394;SDS011;11870;53.084;18.206;2024-03-29T10:54:56;1.92;;;1.10;;
23394;SDS011;11870;53.084;18.206;2024-03-29T10:57:26;3.08;;;1.10;;
23394;SDS011;11870;53.084;18.206;2024-03-29T11:05:05;5.25;;;0.88;;
23394;SDS011;11870;53.084;18.206;2024-03-29T11:07:37;3.85;;;1.25;;
23394;SDS011;11870;53.084;18.206;2024-03-29T11:10:06;3.15;;;1.08;;
23394;SDS011;11870;53.084;18.206;2024-03-29T11:12:41;3.80;;;1.25;;
23394;SDS011;11870;53.084;18.206;2024-03-29T11:15:15;2.67;;;1.17;;
23394;SDS011;11870;53.084;18.206;2024-03-29T11:17:48;6.90;;;1.02;;
23394;SDS011;11870;53.084;18.206;2024-03-29T11:20:15;3.00;;;1.05;;
23394;SDS011;11870;53.084;18.206;2024-03-29T11:22:47;4.32;;;1.17;;
23394;SDS011;11870;53.084;18.206;2024-03-29T11:25:14;4.43;;;1.00;;
23394;SDS011;11870;53.084;18.206;2024-03-29T11:27:40;4.00;;;0.90;;
23394;SDS011;11870;53.084;18.206;2024-03-29T11:30:07;4.47;;;1.00;;
23394;SDS011;11870;53.084;18.206;2024-03-29T11:32:37;3.25;;;1.00;;
23394;SDS011;11870;53.084;18.206;2024-03-29T11:35:04;9.18;;;1.05;;
23394;SDS011;11870;53.084;18.206;2024-03-29T11:37:32;1.67;;;1.00;;
23394;SDS011;11870;53.084;18.206;2024-03-29T11:39:58;2.63;;;1.00;;
23394;SDS011;11870;53.084;18.206;2024-03-29T11:45:15;4.00;;;1.35;;
23394;SDS011;11870;53.084;18.206;2024-03-29T11:47:42;4.65;;;1.40;;
23394;SDS011;11870;53.084;18.206;2024-03-29T11:50:09;4.18;;;0.90;;
23394;SDS011;11870;53.084;18.206;2024-03-29T11:52:38;6.32;;;1.13;;
23394;SDS011;11870;53.084;18.206;2024-03-29T11:55:04;8.60;;;1.23;;
23394;SDS011;11870;53.084;18.206;2024-03-29T11:57:33;8.20;;;1.23;;
23394;SDS011;11870;53.084;18.206;2024-03-29T11:59:59;4.00;;;1.33;;
23394;SDS011;11870;53.084;18.206;2024-03-29T12:02:26;2.10;;;0.85;;
23394;SDS011;11870;53.084;18.206;2024-03-29T12:04:52;7.78;;;1.00;;
23394;SDS011;11870;53.084;18.206;2024-03-29T12:07:18;2.78;;;0.95;;
23394;SDS011;11870;53.084;18.206;2024-03-29T12:09:45;3.33;;;0.93;;
23394;SDS011;11870;53.084;18.206;2024-03-29T12:12:12;4.47;;;1.23;;
23394;SDS011;11870;53.084;18.206;2024-03-29T12:14:45;2.17;;;0.90;;
23394;SDS011;11870;53.084;18.206;2024-03-29T12:17:13;5.18;;;1.45;;
23394;SDS011;11870;53.084;18.206;2024-03-29T12:19:39;2.53;;;0.70;;
23394;SDS011;11870;53.084;18.206;2024-03-29T12:22:08;3.33;;;1.02;;
23394;SDS011;11870;53.084;18.206;2024-03-29T12:24:34;14.75;;;1.50;;
23394;SDS011;11870;53.084;18.206;2024-03-29T12:27:01;2.58;;;0.68;;
23394;SDS011;11870;53.084;18.206;2024-03-29T12:29:28;4.35;;;1.15;;
23394;SDS011;11870;53.084;18.206;2024-03-29T12:32:02;1.85;;;0.88;;
23394;SDS011;11870;53.084;18.206;2024-03-29T12:34:31;2.47;;;0.82;;
23394;SDS011;11870;53.084;18.206;2024-03-29T12:36:59;4.35;;;0.82;;
23394;SDS011;11870;53.084;18.206;2024-03-29T12:39:26;5.80;;;1.00;;
23394;SDS011;11870;53.084;18.206;2024-03-29T12:41:56;1.30;;;0.88;;
23394;SDS011;11870;53.084;18.206;2024-03-29T12:44:25;3.17;;;0.95;;
23394;SDS011;11870;53.084;18.206;2024-03-29T12:46:53;6.13;;;1.00;;
23394;SDS011;11870;53.084;18.206;2024-03-29T12:49:19;2.72;;;0.90;;
23394;SDS011;11870;53.084;18.206;2024-03-29T12:51:49;4.78;;;1.13;;
23394;SDS011;11870;53.084;18.206;2024-03-29T12:54:15;7.32;;;1.00;;
23394;SDS011;11870;53.084;18.206;2024-03-29T12:56:45;3.60;;;0.90;;
23394;SDS011;11870;53.084;18.206;2024-03-29T12:59:11;2.55;;;0.85;;
23394;SDS011;11870;53.084;18.206;2024-03-29T13:01:41;3.03;;;1.00;;
23394;SDS011;11870;53.084;18.206;2024-03-29T13:04:13;3.72;;;0.80;;
23394;SDS011;11870;53.084;18.206;2024-03-29T13:06:40;2.72;;;1.02;;
23394;SDS011;11870;53.084;18.206;2024-03-29T13:09:10;4.60;;;1.15;;
23394;SDS011;11870;53.084;18.206;2024-03-29T13:11:38;1.42;;;0.88;;
23394;SDS011;11870;53.084;18.206;2024-03-29T13:14:06;3.80;;;1.00;;
23394;SDS011;11870;53.084;18.206;2024-03-29T13:16:35;3.65;;;0.88;;
23394;SDS011;11870;53.084;18.206;2024-03-29T13:19:02;3.10;;;1.10;;
23394;SDS011;11870;53.084;18.206;2024-03-29T13:21:29;5.63;;;1.27;;
23394;SDS011;11870;53.084;18.206;2024-03-29T13:23:56;0.88;;;0.70;;
23394;SDS011;11870;53.084;18.206;2024-03-29T13:26:24;3.58;;;0.90;;
23394;SDS011;11870;53.084;18.206;2024-03-29T13:28:51;3.05;;;1.08;;
23394;SDS011;11870;53.084;18.206;2024-03-29T13:31:18;6.97;;;1.20;;
23394;SDS011;11870;53.084;18.206;2024-03-29T13:33:47;4.43;;;0.80;;
23394;SDS011;11870;53.084;18.206;2024-03-29T13:36:16;1.80;;;0.88;;
23394;SDS011;11870;53.084;18.206;2024-03-29T13:38:43;2.47;;;0.77;;
23394;SDS011;11870;53.084;18.206;2024-03-29T13:41:10;4.03;;;1.30;;
23394;SDS011;11870;53.084;18.206;2024-03-29T13:43:39;2.40;;;0.90;;
23394;SDS011;11870;53.084;18.206;2024-03-29T13:46:11;3.42;;;1.00;;
23394;SDS011;11870;53.084;18.206;2024-03-29T13:48:41;3.65;;;0.95;;
23394;SDS011;11870;53.084;18.206;2024-03-29T13:51:09;5.60;;;0.90;;
23394;SDS011;11870;53.084;18.206;2024-03-29T13:53:36;4.65;;;1.00;;
23394;SDS011;11870;53.084;18.206;2024-03-29T13:56:03;2.75;;;0.70;;
23394;SDS011;11870;53.084;18.206;2024-03-29T13:58:31;5.47;;;1.00;;
23394;SDS011;11870;53.084;18.206;2024-03-29T14:01:02;4.57;;;0.95;;
23394;SDS011;11870;53.084;18.206;2024-03-29T14:03:28;4.25;;;1.30;;
23394;SDS011;11870;53.084;18.206;2024-03-29T14:05:56;5.90;;;1.17;;
23394;SDS011;11870;53.084;18.206;2024-03-29T14:08:22;1.90;;;0.80;;
23394;SDS011;11870;53.084;18.206;2024-03-29T14:10:58;2.10;;;0.80;;
23394;SDS011;11870;53.084;18.206;2024-03-29T14:13:26;2.10;;;0.90;;
23394;SDS011;11870;53.084;18.206;2024-03-29T14:15:58;3.22;;;0.90;;
23394;SDS011;11870;53.084;18.206;2024-03-29T14:18:29;4.72;;;1.10;;
23394;SDS011;11870;53.084;18.206;2024-03-29T14:20:57;2.83;;;1.00;;
23394;SDS011;11870;53.084;18.206;2024-03-29T14:23:24;2.38;;;1.00;;
23394;SDS011;11870;53.084;18.206;2024-03-29T14:25:51;2.53;;;1.00;;
23394;SDS011;11870;53.084;18.206;2024-03-29T14:28:19;5.32;;;1.10;;
23394;SDS011;11870;53.084;18.206;2024-03-29T14:30:50;3.45;;;1.10;;
23394;SDS011;11870;53.084;18.206;2024-03-29T14:33:18;2.78;;;1.20;;
23394;SDS011;11870;53.084;18.206;2024-03-29T14:35:47;2.75;;;1.00;;
23394;SDS011;11870;53.084;18.206;2024-03-29T14:38:15;1.38;;;0.73;;
23394;SDS011;11870;53.084;18.206;2024-03-29T14:40:42;3.33;;;1.00;;
23394;SDS011;11870;53.084;18.206;2024-03-29T14:43:08;3.65;;;1.08;;
23394;SDS011;11870;53.084;18.206;2024-03-29T14:45:35;3.97;;;1.02;;
23394;SDS011;11870;53.084;18.206;2024-03-29T14:48:03;3.10;;;1.00;;